Time;durP1;ratioP1;P1;durP2;ratioP2;P2;SDS_P1;SDS_P2;PMS_P1;PMS_P2;Temp;Humidity;BMP_temperature;BMP_pressure;BME280_temperature;BME280_humidity;BME280_pressure;Samples;Min_cycle;Max_cycle;Signal;HPM_P1;HPM_P2
2021/06/09 00:01:58;;;;;;;7.18;3.83;;;;;;;20.08;53.02;99890.53;4400144;32;33617;-84
2021/06/09 00:04:26;;;;;;;3.90;3.50;;;;;;;20.02;53.26;99896.41;4386637;32;33734;-84
2021/06/09 00:06:54;;;;;;;4.43;3.53;;;;;;;19.89;54.03;99891.19;4386400;32;35249;-84
2021/06/09 00:09:22;;;;;;;4.50;3.55;;;;;;;19.87;53.57;99890.47;4398232;32;34996;-84
2021/06/09 00:11:50;;;;;;;3.45;3.10;;;;;;;19.80;52.91;99889.28;4398604;32;33559;-84
2021/06/09 00:14:18;;;;;;;5.07;3.42;;;;;;;19.66;52.72;99880.53;4394870;32;33159;-84
2021/06/09 00:16:46;;;;;;;2.95;2.75;;;;;;;19.80;52.19;99886.59;4378462;32;35294;-84
2021/06/09 00:19:16;;;;;;;4.78;3.08;;;;;;;19.80;52.05;99882.09;4387115;32;34628;-84
2021/06/09 00:21:47;;;;;;;5.87;3.95;;;;;;;19.61;52.51;99882.72;4367460;32;34883;-84
2021/06/09 00:24:16;;;;;;;5.03;3.70;;;;;;;19.52;52.17;99878.06;4393221;32;33648;-84
2021/06/09 00:26:44;;;;;;;5.70;3.83;;;;;;;19.47;52.28;99879.41;4374935;32;32826;-84
2021/06/09 00:29:12;;;;;;;5.80;4.43;;;;;;;19.51;52.12;99876.34;4389023;32;35645;-84
2021/06/09 00:31:42;;;;;;;4.22;3.70;;;;;;;19.57;52.19;99883.91;4385610;32;33369;-84
2021/06/09 00:34:10;;;;;;;4.10;3.70;;;;;;;19.58;52.24;99880.25;4392250;32;34108;-83
2021/06/09 00:36:38;;;;;;;5.12;3.15;;;;;;;19.46;52.52;99878.53;4362722;32;34624;-83
2021/06/09 00:39:07;;;;;;;6.22;3.65;;;;;;;19.54;52.33;99875.25;4399542;32;33762;-83
2021/06/09 00:41:36;;;;;;;6.75;3.83;;;;;;;19.22;52.88;99880.47;4363194;32;34083;-83
2021/06/09 00:44:05;;;;;;;5.70;3.85;;;;;;;19.13;53.65;99876.69;4376840;32;32764;-83
2021/06/09 00:46:38;;;;;;;4.00;3.55;;;;;;;19.29;53.40;99869.16;4373872;32;33457;-83
2021/06/09 00:49:06;;;;;;;4.20;3.78;;;;;;;19.67;52.39;99871.50;4373295;32;33625;-83
2021/06/09 00:51:34;;;;;;;5.70;3.87;;;;;;;19.69;53.28;99864.19;4385851;32;33585;-83
2021/06/09 00:54:06;;;;;;;5.35;3.67;;;;;;;19.62;53.54;99865.66;4401373;32;32902;-83
2021/06/09 00:56:37;;;;;;;;;;;;;;;19.61;54.13;99861.28;4386212;32;33946;-84
2021/06/09 00:59:07;;;;;;;4.78;3.97;;;;;;;19.98;53.00;99858.28;4381941;32;33184;-84
2021/06/09 01:01:35;;;;;;;5.28;3.62;;;;;;;20.05;52.67;99856.81;4397440;32;34289;-84
2021/06/09 01:04:04;;;;;;;4.28;3.70;;;;;;;19.75;53.48;99861.97;4401649;32;33165;-84
2021/06/09 01:06:32;;;;;;;4.68;4.22;;;;;;;19.65;53.97;99861.88;4402002;32;33897;-84
2021/06/09 01:09:00;;;;;;;5.82;3.85;;;;;;;19.84;53.30;99855.87;4403539;32;33677;-84
2021/06/09 01:11:28;;;;;;;5.20;4.18;;;;;;;19.80;53.35;99859.81;4401310;32;33514;-83
2021/06/09 01:13:56;;;;;;;4.37;3.97;;;;;;;19.61;54.12;99872.00;4397327;32;32860;-83
2021/06/09 01:16:25;;;;;;;4.53;3.62;;;;;;;19.54;54.65;99872.56;4415425;32;33342;-83
2021/06/09 01:18:54;;;;;;;5.78;4.05;;;;;;;19.27;55.21;99862.22;4401738;32;34070;-83
2021/06/09 01:21:29;;;;;;;7.43;3.90;;;;;;;19.56;54.23;99868.81;4401663;32;33224;-84
2021/06/09 01:23:58;;;;;;;5.28;4.40;;;;;;;19.51;54.65;99867.44;4400390;32;33778;-84
2021/06/09 01:26:27;;;;;;;5.47;3.95;;;;;;;19.59;54.13;99865.88;4388249;32;35323;-84
2021/06/09 01:28:55;;;;;;;5.25;4.53;;;;;;;19.44;54.60;99865.28;4401190;32;33757;-84
2021/06/09 01:31:24;;;;;;;8.07;4.57;;;;;;;19.23;55.15;99869.66;4405768;32;32234;-83
2021/06/09 01:33:52;;;;;;;4.90;4.47;;;;;;;19.26;55.01;99868.53;4393823;32;33747;-83
2021/06/09 01:36:23;;;;;;;5.20;4.07;;;;;;;19.36;54.65;99867.69;4398526;32;33946;-83
2021/06/09 01:38:53;;;;;;;;;;;;;;;19.42;55.04;99869.91;4412370;32;33769;-84
2021/06/09 01:41:24;;;;;;;5.18;4.47;;;;;;;19.36;55.03;99865.00;4388149;32;34509;-84
2021/06/09 01:43:53;;;;;;;5.03;4.55;;;;;;;19.37;54.95;99865.88;4385442;32;33943;-84
2021/06/09 01:46:21;;;;;;;6.47;5.03;;;;;;;19.44;54.72;99865.28;4405946;32;34486;-84
2021/06/09 01:48:49;;;;;;;5.15;4.75;;;;;;;19.43;54.91;99862.72;4400885;32;34889;-84
2021/06/09 01:51:18;;;;;;;5.18;3.83;;;;;;;19.31;55.34;99869.03;4395362;32;34527;-84
2021/06/09 01:53:47;;;;;;;4.75;4.35;;;;;;;19.23;55.82;99872.34;4367106;32;33298;-84
2021/06/09 01:56:15;;;;;;;5.25;4.75;;;;;;;19.14;56.07;99868.56;4380631;32;33611;-84
2021/06/09 01:58:43;;;;;;;4.82;4.43;;;;;;;19.22;55.83;99861.72;4369647;32;35190;-84
2021/06/09 02:01:11;;;;;;;6.75;4.43;;;;;;;19.09;56.36;99865.38;4381975;32;33519;-84
2021/06/09 02:03:42;;;;;;;7.62;4.87;;;;;;;19.06;56.32;99865.59;4379848;32;33604;-84
2021/06/09 02:06:09;;;;;;;5.20;4.70;;;;;;;18.86;57.29;99868.97;4382274;32;33623;-84
2021/06/09 02:08:37;;;;;;;8.73;4.97;;;;;;;18.89;57.13;99860.69;4394173;32;33694;-85
2021/06/09 02:11:05;;;;;;;5.03;4.50;;;;;;;18.95;56.77;99867.44;4378102;32;33466;-85
2021/06/09 02:13:33;;;;;;;5.22;4.70;;;;;;;18.98;56.56;99868.03;4391667;32;33262;-85
2021/06/09 02:16:01;;;;;;;6.12;4.80;;;;;;;18.79;57.16;99865.91;4385186;32;33453;-85
2021/06/09 02:18:30;;;;;;;5.18;4.57;;;;;;;18.91;56.81;99872.16;4395055;32;33700;-85
2021/06/09 02:21:00;;;;;;;6.18;5.50;;;;;;;18.63;58.01;99876.06;4406625;32;33823;-84
2021/06/09 02:23:29;;;;;;;5.30;4.80;;;;;;;18.55;58.58;99867.75;4394271;32;33697;-84
2021/06/09 02:25:59;;;;;;;5.30;4.80;;;;;;;18.48;58.95;99872.72;4406571;32;33768;-84
2021/06/09 02:28:30;;;;;;;5.95;4.60;;;;;;;18.45;58.81;99874.75;4393248;32;33541;-84
2021/06/09 02:30:59;;;;;;;8.10;5.05;;;;;;;18.48;58.32;99871.87;4380680;32;34394;-85
2021/06/09 02:33:27;;;;;;;7.07;5.53;;;;;;;18.50;58.07;99867.25;4381468;32;32893;-85
2021/06/09 02:35:56;;;;;;;6.15;5.43;;;;;;;18.48;57.89;99874.53;4393154;32;33554;-85
2021/06/09 02:38:24;;;;;;;9.45;5.22;;;;;;;18.55;57.65;99875.78;4369130;32;34141;-85
2021/06/09 02:40:54;;;;;;;6.00;5.40;;;;;;;18.58;57.68;99871.06;4394310;32;34803;-85
2021/06/09 02:43:23;;;;;;;7.72;5.70;;;;;;;18.47;58.04;99868.34;4390406;32;33126;-85
2021/06/09 02:45:52;;;;;;;7.00;5.30;;;;;;;18.74;57.34;99873.44;4381528;32;35413;-85
2021/06/09 02:48:24;;;;;;;10.15;5.20;;;;;;;18.47;58.21;99868.34;4382114;32;32658;-85
2021/06/09 02:50:52;;;;;;;6.47;5.87;;;;;;;18.36;58.62;99871.81;4395776;32;35141;-85
2021/06/09 02:53:27;;;;;;;6.20;5.60;;;;;;;18.15;59.05;99863.56;4386835;32;34770;-83
2021/06/09 02:56:12;;;;;;;9.07;5.95;;;;;;;18.08;59.31;99867.66;4400960;32;34342;-83
2021/06/09 02:58:52;;;;;;;5.90;5.40;;;;;;;18.06;59.36;99861.59;4403532;32;34694;-84
2021/06/09 03:01:32;;;;;;;7.97;5.65;;;;;;;18.41;58.33;99858.09;4391789;32;34491;-84
2021/06/09 03:04:17;;;;;;;6.55;5.65;;;;;;;18.33;58.79;99860.50;4400462;32;34091;-83
2021/06/09 03:07:04;;;;;;;12.48;6.45;;;;;;;18.21;58.99;99866.75;4378458;32;33832;-83
2021/06/09 03:09:36;;;;;;;7.82;6.87;;;;;;;18.32;59.32;99878.34;4390843;32;34187;-82
2021/06/09 03:12:22;;;;;;;;;;;;;;;18.63;58.16;99873.38;4389482;32;32024;-82
2021/06/09 03:15:14;;;;;;;6.70;6.10;;;;;;;18.08;60.13;99872.16;4402360;32;32933;-82
2021/06/09 03:17:54;;;;;;;6.43;5.77;;;;;;;17.80;60.77;99867.97;4413977;32;34588;-83
2021/06/09 03:20:51;;;;;;;8.65;6.20;;;;;;;17.97;60.15;99869.41;4414163;32;33337;-83
2021/06/09 03:23:41;;;;;;;9.48;6.28;;;;;;;17.96;60.12;99873.91;4400110;32;34717;-83
2021/06/09 03:26:51;;;;;;;6.30;5.70;;;;;;;18.06;59.75;99864.25;4402079;32;33972;-82
2021/06/09 03:29:39;;;;;;;6.62;5.78;;;;;;;18.28;59.30;99874.22;4386844;32;34083;-82
2021/06/09 03:32:10;;;;;;;8.27;6.35;;;;;;;18.26;59.52;99873.47;4400447;32;33824;-82
2021/06/09 03:34:55;;;;;;;6.62;6.03;;;;;;;18.28;59.90;99866.19;4390700;32;35058;-83
2021/06/09 03:37:23;;;;;;;7.25;6.50;;;;;;;18.45;59.54;99870.25;4403715;32;33694;-83
2021/06/09 03:39:57;;;;;;;8.63;6.12;;;;;;;18.55;59.18;99873.94;4395091;32;34422;-83
2021/06/09 03:42:30;;;;;;;10.38;8.02;;;;;;;18.40;59.89;99875.97;4402591;32;35453;-83
2021/06/09 03:44:59;;;;;;;6.57;5.93;;;;;;;18.71;59.10;99872.84;4402986;32;32982;-83
2021/06/09 03:47:28;;;;;;;9.13;7.53;;;;;;;18.61;59.82;99870.84;4404075;32;34172;-83
2021/06/09 03:49:57;;;;;;;10.23;6.93;;;;;;;18.81;59.19;99869.34;4391090;32;34046;-82
2021/06/09 03:52:25;;;;;;;8.05;7.00;;;;;;;18.73;59.81;99873.56;4381333;32;33149;-82
2021/06/09 03:54:58;;;;;;;7.65;6.70;;;;;;;18.89;59.50;99868.72;4381746;32;33936;-83
2021/06/09 03:57:27;;;;;;;10.50;6.57;;;;;;;19.05;59.21;99871.94;4381584;32;33400;-82
2021/06/09 03:59:55;;;;;;;7.78;6.60;;;;;;;19.14;59.27;99873.91;4381637;32;33638;-82
2021/06/09 04:02:24;;;;;;;8.15;6.47;;;;;;;19.26;58.92;99873.91;4393607;32;34414;-82
2021/06/09 04:04:53;;;;;;;9.57;7.10;;;;;;;19.43;58.98;99868.94;4380592;32;33588;-82
2021/06/09 04:07:26;;;;;;;7.95;7.15;;;;;;;19.59;58.46;99873.06;4392571;32;34180;-82
2021/06/09 04:09:57;;;;;;;8.63;6.90;;;;;;;19.47;59.59;99869.53;4376541;32;34488;-82
2021/06/09 04:12:25;;;;;;;7.72;7.03;;;;;;;19.86;57.98;99861.97;4366629;32;35695;-83
2021/06/09 04:14:54;;;;;;;7.97;6.43;;;;;;;19.99;57.43;99860.00;4376180;32;35086;-83
2021/06/09 04:17:24;;;;;;;8.60;6.68;;;;;;;20.39;56.69;99860.22;4373536;32;33771;-82
2021/06/09 04:19:54;;;;;;;10.60;6.95;;;;;;;20.47;56.77;99859.62;4378460;32;35093;-83
2021/06/09 04:22:22;;;;;;;7.32;6.65;;;;;;;20.54;56.79;99858.13;4376792;32;33416;-83
2021/06/09 04:24:50;;;;;;;8.43;7.62;;;;;;;20.78;55.78;99860.56;4389852;32;33768;-83
2021/06/09 04:27:23;;;;;;;8.32;7.53;;;;;;;20.90;55.72;99867.56;4364177;32;35028;-83
2021/06/09 04:29:54;;;;;;;11.38;8.85;;;;;;;21.03;54.96;99870.06;4403805;32;32999;-83
2021/06/09 04:32:22;;;;;;;9.23;8.32;;;;;;;21.02;53.24;99867.50;4364014;32;34950;-83
2021/06/09 04:34:53;;;;;;;8.80;7.68;;;;;;;21.14;53.24;99874.50;4375800;32;33190;-84
2021/06/09 04:37:22;;;;;;;10.77;7.95;;;;;;;21.40;53.18;99872.25;4383677;32;33803;-83
2021/06/09 04:39:52;;;;;;;13.35;8.52;;;;;;;21.31;52.98;99867.69;4402648;32;32726;-84
2021/06/09 04:42:21;;;;;;;9.43;8.52;;;;;;;21.49;52.40;99866.06;4377963;32;34319;-83
2021/06/09 04:44:49;;;;;;;11.50;7.75;;;;;;;21.65;52.19;99869.13;4377667;32;34534;-84
2021/06/09 04:47:17;;;;;;;9.88;7.93;;;;;;;21.66;52.34;99870.81;4398848;32;30941;-84
2021/06/09 04:49:46;;;;;;;8.77;7.87;;;;;;;22.01;52.00;99864.13;4394081;32;32982;-84
2021/06/09 04:52:26;;;;;;;11.23;7.50;;;;;;;22.23;52.13;99863.91;4390368;32;33634;-84
2021/06/09 04:54:54;;;;;;;12.18;8.65;;;;;;;22.28;51.65;99862.63;4403938;32;33359;-86
2021/06/09 04:57:22;;;;;;;9.20;8.00;;;;;;;22.23;51.38;99871.97;4380781;32;33706;-85
2021/06/09 04:59:50;;;;;;;10.68;9.10;;;;;;;22.45;52.87;99867.28;4388060;32;33342;-84
2021/06/09 05:02:19;;;;;;;11.12;8.95;;;;;;;22.77;51.31;99868.84;4400140;32;32957;-84
2021/06/09 05:04:47;;;;;;;14.07;9.00;;;;;;;22.90;50.64;99861.38;4414900;32;33821;-85
2021/06/09 05:07:14;;;;;;;9.88;8.88;;;;;;;22.91;50.88;99863.91;4387901;32;35629;-84
2021/06/09 05:09:42;;;;;;;10.65;9.20;;;;;;;22.98;50.31;99866.88;4402268;32;33933;-84
2021/06/09 05:12:16;;;;;;;11.55;9.88;;;;;;;22.85;50.61;99871.69;4398289;32;33717;-87
2021/06/09 05:14:54;;;;;;;11.70;8.98;;;;;;;22.87;51.08;99872.37;4403016;32;33820;-86
2021/06/09 05:17:28;;;;;;;10.10;7.97;;;;;;;22.70;51.42;99864.06;4379017;32;34074;-86
2021/06/09 05:19:58;;;;;;;12.65;9.30;;;;;;;22.79;51.52;99864.16;4412656;32;33993;-83
2021/06/09 05:22:36;;;;;;;11.90;8.98;;;;;;;23.13;50.97;99857.34;4400880;32;34447;-85
2021/06/09 05:25:05;;;;;;;13.05;9.13;;;;;;;23.28;50.49;99852.34;4388124;32;34529;-84
2021/06/09 05:27:33;;;;;;;10.25;9.30;;;;;;;23.32;50.96;99858.28;4391061;32;34605;-85
2021/06/09 05:30:02;;;;;;;11.23;9.98;;;;;;;23.51;51.18;99850.97;4399555;32;34244;-85
2021/06/09 05:32:31;;;;;;;10.25;9.07;;;;;;;23.50;50.53;99853.81;4395050;32;34012;-84
2021/06/09 05:34:59;;;;;;;9.77;8.77;;;;;;;23.41;50.89;99854.72;4401825;32;35530;-85
2021/06/09 05:37:28;;;;;;;11.40;8.93;;;;;;;23.70;50.16;99850.06;4403162;32;33313;-85
2021/06/09 05:39:59;;;;;;;9.50;8.52;;;;;;;24.07;49.02;99851.84;4389179;32;33624;-86
2021/06/09 05:42:28;;;;;;;12.18;9.60;;;;;;;24.28;49.51;99849.69;4415167;32;33828;-85
2021/06/09 05:44:55;;;;;;;10.93;8.98;;;;;;;24.27;49.28;99853.38;4389467;32;33552;-85
2021/06/09 05:47:23;;;;;;;10.18;8.90;;;;;;;24.50;47.44;99852.97;4405607;32;34897;-85
2021/06/09 05:50:17;;;;;;;9.90;8.70;;;;;;;24.12;48.50;99854.91;4376210;32;34251;-85
2021/06/09 05:52:46;;;;;;;10.85;8.20;;;;;;;24.28;49.50;99851.53;4404460;32;35945;-84
2021/06/09 05:55:17;;;;;;;9.35;8.38;;;;;;;24.30;49.23;99851.38;4388228;32;33637;-83
2021/06/09 05:57:45;;;;;;;14.27;9.77;;;;;;;24.64;48.17;99852.41;4401315;32;33126;-83
2021/06/09 06:00:15;;;;;;;12.20;8.95;;;;;;;24.70;47.98;99853.63;4389729;32;34045;-82
2021/06/09 06:02:44;;;;;;;10.38;9.27;;;;;;;24.61;48.79;99854.56;4385706;32;33628;-82
2021/06/09 06:05:12;;;;;;;9.90;8.65;;;;;;;23.66;50.20;99859.44;4398453;32;34324;-83
2021/06/09 06:07:40;;;;;;;12.57;9.13;;;;;;;24.53;50.30;99858.03;4385566;32;31168;-83
2021/06/09 06:10:10;;;;;;;9.07;8.18;;;;;;;24.88;47.88;99856.31;4389230;32;34302;-83
2021/06/09 06:12:38;;;;;;;9.55;8.02;;;;;;;24.83;46.88;99862.19;4400655;32;34244;-83
2021/06/09 06:15:07;;;;;;;10.48;8.93;;;;;;;24.82;48.68;99863.16;4376358;32;30298;-82
2021/06/09 06:17:39;;;;;;;10.32;8.88;;;;;;;24.14;48.85;99863.69;4401572;32;33201;-81
2021/06/09 06:20:17;;;;;;;13.20;8.32;;;;;;;24.61;48.55;99860.81;4399165;32;34618;-81
2021/06/09 06:22:47;;;;;;;11.20;8.77;;;;;;;24.70;46.56;99859.88;4390151;32;33012;-83
2021/06/09 06:25:17;;;;;;;11.27;8.60;;;;;;;25.16;47.58;99860.59;4412950;32;33881;-90
2021/06/09 06:27:46;;;;;;;8.93;7.90;;;;;;;25.45;45.70;99854.00;4389684;32;36016;-90
2021/06/09 06:30:19;;;;;;;9.05;8.13;;;;;;;25.51;44.81;99853.34;4389956;32;33870;-91
2021/06/09 06:32:53;;;;;;;9.68;7.40;;;;;;;25.65;44.49;99855.44;4392221;32;32818;-90
2021/06/09 06:35:22;;;;;;;8.38;6.37;;;;;;;25.81;44.31;99860.06;4391353;32;35322;-91
2021/06/09 06:37:51;;;;;;;8.10;6.18;;;;;;;25.35;41.68;99855.94;4400071;32;33677;-91
2021/06/09 06:40:23;;;;;;;9.15;6.12;;;;;;;25.55;41.37;99852.00;4387597;32;34611;-91
2021/06/09 06:42:52;;;;;;;6.60;5.97;;;;;;;26.03;43.08;99858.63;4406722;32;34534;-90
2021/06/09 06:45:21;;;;;;;7.45;6.10;;;;;;;26.25;41.64;99852.59;4419367;32;35073;-91
2021/06/09 06:47:51;;;;;;;6.22;5.05;;;;;;;26.44;38.85;99859.56;4393435;32;34148;-90
2021/06/09 06:50:21;;;;;;;5.20;4.57;;;;;;;26.48;37.81;99862.78;4390402;32;34724;-89
2021/06/09 06:52:49;;;;;;;4.45;4.05;;;;;;;26.45;37.83;99863.16;4403142;32;33806;-89
2021/06/09 06:55:19;;;;;;;7.80;5.25;;;;;;;26.61;35.55;99857.72;4393281;32;34020;-89
2021/06/09 06:57:48;;;;;;;7.80;5.82;;;;;;;26.75;37.37;99859.75;4404800;32;32784;-90
2021/06/09 07:00:20;;;;;;;8.13;6.45;;;;;;;26.68;39.46;99857.88;4402365;32;34601;-89
2021/06/09 07:02:51;;;;;;;6.43;5.82;;;;;;;26.63;39.30;99858.41;4405933;32;33763;-89
2021/06/09 07:05:20;;;;;;;7.80;6.05;;;;;;;26.83;39.62;99860.78;4405276;32;33900;-89
2021/06/09 07:07:49;;;;;;;6.53;5.32;;;;;;;26.77;41.25;99868.56;4403386;32;35409;-90
2021/06/09 07:10:18;;;;;;;5.22;4.68;;;;;;;26.80;38.63;99859.25;4384043;32;34687;-89
2021/06/09 07:12:48;;;;;;;6.57;5.25;;;;;;;27.04;39.12;99858.38;4398244;32;34726;-90
2021/06/09 07:15:18;;;;;;;14.25;6.03;;;;;;;27.62;36.06;99859.94;4406442;32;34256;-89
2021/06/09 07:17:56;;;;;;;7.28;5.55;;;;;;;27.43;37.97;99858.47;4417529;32;33226;-89
2021/06/09 07:20:26;;;;;;;8.73;5.78;;;;;;;27.71;36.32;99861.63;4401651;32;34562;-89
2021/06/09 07:22:55;;;;;;;6.68;5.20;;;;;;;27.60;36.17;99856.56;4415149;32;35241;-89
2021/06/09 07:25:25;;;;;;;7.12;5.30;;;;;;;27.47;36.32;99859.84;4381079;32;33803;-89
2021/06/09 07:28:02;;;;;;;10.73;6.20;;;;;;;27.95;36.97;99859.84;4407110;32;33107;-89
2021/06/09 07:30:35;;;;;;;10.52;6.03;;;;;;;28.51;35.07;99855.09;4413033;32;32015;-89
2021/06/09 07:33:05;;;;;;;5.93;5.32;;;;;;;28.31;36.33;99849.28;4407172;32;34250;-89
2021/06/09 07:35:34;;;;;;;7.62;5.65;;;;;;;28.06;36.11;99845.88;4389803;32;33972;-89
2021/06/09 07:38:06;;;;;;;5.95;4.80;;;;;;;28.39;35.82;99848.37;4396165;32;33067;-89
2021/06/09 07:40:35;;;;;;;;;;;;;;;29.01;35.31;99848.25;4416137;32;34686;-89
2021/06/09 07:43:17;;;;;;;5.43;4.93;;;;;;;28.00;35.13;99860.12;4390941;32;33786;-90
2021/06/09 07:45:48;;;;;;;6.78;4.80;;;;;;;28.50;37.11;99853.41;4378998;32;35301;-90
2021/06/09 07:48:17;;;;;;;5.32;4.82;;;;;;;28.89;35.50;99855.13;4397104;32;33971;-90
2021/06/09 07:50:49;;;;;;;7.32;4.70;;;;;;;28.91;34.78;99859.31;4417373;32;33561;-90
2021/06/09 07:53:18;;;;;;;7.70;5.28;;;;;;;28.71;34.73;99863.59;4403459;32;34057;-89
2021/06/09 07:55:47;;;;;;;11.18;5.05;;;;;;;28.66;34.73;99866.84;4415953;32;33583;-89
2021/06/09 07:58:16;;;;;;;7.03;4.60;;;;;;;29.20;33.57;99850.44;4405723;32;34126;-89
2021/06/09 08:00:44;;;;;;;5.43;4.60;;;;;;;29.37;34.74;99850.25;4396579;32;34705;-90
2021/06/09 08:03:12;;;;;;;6.10;4.60;;;;;;;29.15;34.16;99858.31;4391660;32;34146;-89
2021/06/09 08:05:41;;;;;;;6.45;4.43;;;;;;;29.34;34.18;99860.47;4400746;32;33272;-90
2021/06/09 08:08:12;;;;;;;11.50;4.55;;;;;;;29.04;34.56;99854.13;4417826;32;34076;-90
2021/06/09 08:10:43;;;;;;;9.05;5.32;;;;;;;29.32;34.90;99861.69;4381425;32;34056;-89
2021/06/09 08:13:11;;;;;;;10.35;4.90;;;;;;;29.56;32.78;99858.69;4400806;32;33833;-90
2021/06/09 08:15:40;;;;;;;6.12;4.62;;;;;;;29.68;34.19;99850.94;4401450;32;34062;-90
2021/06/09 08:18:09;;;;;;;7.35;4.07;;;;;;;29.65;36.94;99851.28;4386932;32;32803;-90
2021/06/09 08:21:02;;;;;;;5.57;3.72;;;;;;;29.67;32.49;99849.22;4408053;32;34228;-91
2021/06/09 08:23:31;;;;;;;6.78;3.50;;;;;;;29.62;27.83;99843.50;4399701;32;36305;-89
2021/06/09 08:25:59;;;;;;;4.62;2.72;;;;;;;28.81;34.05;99854.16;4385409;32;35514;-89
2021/06/09 08:28:28;;;;;;;4.43;3.55;;;;;;;28.14;29.92;99855.81;4417701;32;33414;-89
2021/06/09 08:30:56;;;;;;;6.82;3.78;;;;;;;29.08;29.13;99852.75;4387366;32;33080;-90
2021/06/09 08:33:24;;;;;;;4.50;3.40;;;;;;;29.14;29.15;99848.44;4402744;32;34940;-89
2021/06/09 08:35:52;;;;;;;6.22;3.45;;;;;;;29.13;28.96;99845.91;4375802;32;34825;-90
2021/06/09 08:38:20;;;;;;;3.30;2.87;;;;;;;29.38;29.16;99855.47;4404339;32;33172;-90
2021/06/09 08:40:48;;;;;;;4.00;3.55;;;;;;;29.71;27.63;99852.41;4403532;32;33308;-89
2021/06/09 08:43:17;;;;;;;4.93;3.75;;;;;;;29.15;28.85;99866.47;4395622;32;35712;-89
2021/06/09 08:45:48;;;;;;;4.50;3.42;;;;;;;29.71;28.92;99857.84;4383961;32;35447;-89
2021/06/09 08:48:16;;;;;;;6.12;3.55;;;;;;;29.38;28.65;99865.53;4391124;32;32757;-89
2021/06/09 08:50:47;;;;;;;3.80;3.35;;;;;;;29.89;27.86;99860.16;4398836;32;34222;-90
2021/06/09 08:53:20;;;;;;;5.72;3.08;;;;;;;29.81;27.17;99861.94;4381749;32;33194;-90
2021/06/09 08:55:49;;;;;;;4.12;3.15;;;;;;;29.52;28.18;99870.13;4381587;32;33725;-83
2021/06/09 08:58:17;;;;;;;6.25;3.55;;;;;;;29.84;28.06;99861.59;4381097;32;33753;-83
2021/06/09 09:00:46;;;;;;;3.58;3.12;;;;;;;30.26;27.50;99865.47;4393288;32;33448;-83
2021/06/09 09:03:13;;;;;;;6.85;3.37;;;;;;;30.26;27.29;99862.75;4392178;32;34650;-84
2021/06/09 09:05:42;;;;;;;4.43;3.55;;;;;;;30.25;28.77;99863.78;4382720;32;33380;-84
2021/06/09 09:08:09;;;;;;;9.63;3.53;;;;;;;30.53;27.89;99872.03;4380339;32;33683;-84
2021/06/09 09:10:37;;;;;;;4.37;3.70;;;;;;;30.39;28.82;99858.47;4389660;32;33076;-83
2021/06/09 09:13:05;;;;;;;5.35;3.95;;;;;;;30.24;27.44;99867.56;4392618;32;35052;-84
2021/06/09 09:15:33;;;;;;;4.45;3.53;;;;;;;30.09;27.46;99870.25;4393249;32;33827;-84
2021/06/09 09:18:03;;;;;;;5.43;3.92;;;;;;;30.79;28.26;99870.63;4386929;32;34080;-84
2021/06/09 09:20:43;;;;;;;5.62;3.20;;;;;;;30.99;28.74;99868.06;4377989;32;34396;-84
2021/06/09 09:23:21;;;;;;;10.10;4.20;;;;;;;31.17;28.30;99867.56;4402409;32;33993;-88
2021/06/09 09:25:55;;;;;;;7.05;3.58;;;;;;;31.22;27.13;99874.09;4388128;32;33658;-89
2021/06/09 09:28:30;;;;;;;6.93;3.97;;;;;;;31.07;27.72;99871.47;4387689;32;33105;-89
2021/06/09 09:31:06;;;;;;;4.18;3.62;;;;;;;31.01;26.67;99868.72;4378800;32;34407;-90
2021/06/09 09:33:34;;;;;;;5.78;4.20;;;;;;;31.26;26.16;99871.81;4375402;32;34291;-89
2021/06/09 09:36:29;;;;;;;8.90;3.67;;;;;;;31.08;28.52;99872.31;4401635;32;32996;-90
2021/06/09 09:38:59;;;;;;;4.37;3.87;;;;;;;30.98;27.72;99869.09;4379414;32;35238;-90
2021/06/09 09:41:32;;;;;;;6.35;4.18;;;;;;;31.05;27.89;99867.25;4356743;32;32167;-90
2021/06/09 09:44:02;;;;;;;5.43;3.70;;;;;;;31.32;27.10;99869.16;4369891;32;33924;-90
2021/06/09 09:46:34;;;;;;;6.87;3.97;;;;;;;31.08;27.14;99858.69;4379821;32;33950;-90
2021/06/09 09:49:06;;;;;;;7.35;4.60;;;;;;;31.40;27.89;99872.78;4388682;32;34003;-91
2021/06/09 09:51:44;;;;;;;11.68;3.92;;;;;;;31.45;28.13;99878.50;4382602;32;34591;-91
2021/06/09 09:54:13;;;;;;;6.87;4.82;;;;;;;31.51;27.36;99869.50;4415770;32;32052;-91
2021/06/09 09:56:43;;;;;;;7.28;4.15;;;;;;;31.70;27.95;99866.03;4399872;32;33242;-90
2021/06/09 09:59:12;;;;;;;6.07;4.35;;;;;;;31.83;28.00;99859.81;4415865;32;32112;-90
2021/06/09 10:01:43;;;;;;;5.68;4.07;;;;;;;31.69;25.47;99856.16;4404178;32;35056;-90
2021/06/09 10:04:18;;;;;;;7.60;4.32;;;;;;;31.29;26.58;99860.56;4417316;32;33406;-87
2021/06/09 10:06:48;;;;;;;8.73;4.12;;;;;;;31.07;28.55;99857.00;4389425;32;34405;-87
2021/06/09 10:09:20;;;;;;;5.53;4.30;;;;;;;31.89;29.60;99850.81;4390377;32;32566;-87
2021/06/09 10:11:57;;;;;;;9.15;4.50;;;;;;;31.73;28.42;99851.13;4399913;32;34249;-87
2021/06/09 10:14:35;;;;;;;6.00;4.45;;;;;;;31.16;28.65;99861.28;4399411;32;34619;-88
2021/06/09 10:17:07;;;;;;;8.02;4.22;;;;;;;31.26;26.43;99856.28;4399124;32;33240;-87
2021/06/09 10:19:42;;;;;;;5.75;3.92;;;;;;;32.04;27.29;99850.66;4406532;32;33203;-87
2021/06/09 10:22:16;;;;;;;7.40;4.32;;;;;;;32.22;25.19;99850.06;4381090;32;35588;-84
2021/06/09 10:24:46;;;;;;;7.65;4.40;;;;;;;31.97;27.33;99855.25;4393244;32;34022;-86
2021/06/09 10:27:16;;;;;;;6.95;4.53;;;;;;;31.90;25.07;99854.38;4407067;32;34498;-86
2021/06/09 10:29:44;;;;;;;5.72;4.03;;;;;;;31.77;25.05;99853.25;4391250;32;32879;-86
2021/06/09 10:32:16;;;;;;;5.75;4.35;;;;;;;31.63;25.62;99848.78;4393602;32;33078;-86
2021/06/09 10:34:46;;;;;;;;;;;;;;;32.40;26.92;99844.91;4414928;32;33791;-86
2021/06/09 10:37:15;;;;;;;7.78;4.00;;;;;;;32.87;23.95;99843.88;4408207;32;34320;-86
2021/06/09 10:39:43;;;;;;;5.97;4.18;;;;;;;32.23;26.55;99855.31;4416039;32;32115;-86
2021/06/09 10:42:16;;;;;;;6.87;3.87;;;;;;;32.89;22.68;99841.75;4391929;32;34748;-86
2021/06/09 10:44:47;;;;;;;6.68;4.78;;;;;;;32.86;25.43;99839.47;4405735;32;34657;-86
2021/06/09 10:47:34;;;;;;;8.50;4.00;;;;;;;32.68;23.97;99830.22;4402190;32;33591;-86
2021/06/09 10:50:05;;;;;;;4.37;4.03;;;;;;;32.96;25.03;99830.84;4406480;32;33691;-86
2021/06/09 10:52:34;;;;;;;6.47;3.85;;;;;;;32.79;24.35;99830.41;4371486;32;98705;-86
2021/06/09 10:55:09;;;;;;;4.82;4.15;;;;;;;33.11;24.75;99834.19;4414997;32;33534;-86
2021/06/09 10:57:37;;;;;;;5.05;4.15;;;;;;;32.28;23.89;99839.16;4418986;32;32916;-86
2021/06/09 11:00:08;;;;;;;9.40;3.87;;;;;;;32.59;24.28;99813.16;4396397;32;34399;-86
2021/06/09 11:02:36;;;;;;;5.65;3.78;;;;;;;32.02;24.62;99830.91;4404639;32;35443;-86
2021/06/09 11:05:07;;;;;;;6.05;3.83;;;;;;;32.69;25.40;99821.78;4394451;32;34059;-86
2021/06/09 11:07:39;;;;;;;6.50;3.90;;;;;;;32.49;24.06;99812.75;4417532;32;33289;-86
2021/06/09 11:10:11;;;;;;;6.30;3.60;;;;;;;32.48;23.98;99816.53;4396391;32;35115;-86
2021/06/09 11:12:42;;;;;;;7.65;4.25;;;;;;;32.98;25.62;99811.50;4387593;32;32522;-86
2021/06/09 11:15:11;;;;;;;3.92;3.30;;;;;;;33.01;24.60;99813.81;4417989;32;34812;-86
2021/06/09 11:17:38;;;;;;;5.00;3.72;;;;;;;33.39;25.50;99809.31;4405355;32;35082;-86
2021/06/09 11:20:17;;;;;;;8.05;3.95;;;;;;;33.56;24.21;99803.37;4396574;32;34278;-86
2021/06/09 11:23:03;;;;;;;4.50;3.70;;;;;;;33.24;23.33;99805.16;4408270;32;33792;-87
2021/06/09 11:25:40;;;;;;;5.05;3.65;;;;;;;33.23;23.43;99797.97;4405744;32;33727;-86
2021/06/09 11:28:15;;;;;;;8.23;3.78;;;;;;;32.88;24.33;99800.94;4392165;32;34280;-86
2021/06/09 11:31:00;;;;;;;4.10;3.70;;;;;;;33.12;23.43;99802.22;4405041;32;32820;-86
2021/06/09 11:33:34;;;;;;;11.02;4.15;;;;;;;33.00;23.47;99803.94;4393822;32;34361;-86
2021/06/09 11:36:05;;;;;;;4.65;4.00;;;;;;;33.45;24.38;99796.69;4390516;32;32985;-86
2021/06/09 11:38:42;;;;;;;6.43;4.15;;;;;;;33.55;23.51;99790.75;4411531;32;33921;-86
2021/06/09 11:41:14;;;;;;;7.00;3.55;;;;;;;33.44;22.81;99791.44;4403176;32;34024;-86
2021/06/09 11:43:44;;;;;;;9.43;4.00;;;;;;;33.25;23.77;99796.72;4417094;32;32725;-86
2021/06/09 11:46:38;;;;;;;6.12;4.00;;;;;;;32.80;23.92;99793.78;4390744;32;34233;-86
2021/06/09 11:49:12;;;;;;;9.35;4.57;;;;;;;33.45;22.73;99785.72;4402272;32;35696;-86
2021/06/09 11:51:43;;;;;;;5.57;4.20;;;;;;;33.25;23.86;99796.72;4391810;32;33067;-86
2021/06/09 11:54:22;;;;;;;8.10;4.30;;;;;;;33.25;25.49;99790.41;4415027;32;33746;-86